createdAt,value
2019-05-03T00:01:00.063Z,11.40
2019-05-03T00:03:29.224Z,11.43
2019-05-03T00:06:02.272Z,11.52
2019-05-03T00:08:33.336Z,11.46
2019-05-03T00:11:02.479Z,11.50
2019-05-03T00:13:32.500Z,11.54
2019-05-03T00:16:08.472Z,11.54
2019-05-03T00:18:37.708Z,11.51
2019-05-03T00:21:06.902Z,11.53
2019-05-03T00:23:36.040Z,11.52
2019-05-03T00:26:05.454Z,11.54
2019-05-03T00:28:34.618Z,11.61
2019-05-03T00:31:03.999Z,11.61
2019-05-03T00:33:33.228Z,11.57
2019-05-03T00:36:24.399Z,11.37
2019-05-03T00:38:56.905Z,11.30
2019-05-03T00:41:26.123Z,11.23
2019-05-03T00:43:55.536Z,11.21
2019-05-03T00:46:24.719Z,11.18
2019-05-03T00:48:53.849Z,11.28
2019-05-03T00:51:23.013Z,11.24
2019-05-03T00:53:53.113Z,11.22
2019-05-03T00:56:22.386Z,11.23
2019-05-03T00:58:58.400Z,11.21
2019-05-03T01:01:27.589Z,11.15
2019-05-03T01:03:56.757Z,11.15
2019-05-03T01:06:26.221Z,11.19
2019-05-03T01:08:55.366Z,11.14
2019-05-03T01:11:24.529Z,11.12
2019-05-03T01:13:53.658Z,11.07
2019-05-03T01:16:23.518Z,11.10
2019-05-03T01:18:52.656Z,11.08
2019-05-03T01:21:22.597Z,11.07
2019-05-03T01:23:52.631Z,11.05
2019-05-03T01:26:22.745Z,11.15
2019-05-03T01:28:52.402Z,11.07
2019-05-03T01:31:22.850Z,11.03
2019-05-03T01:33:52.482Z,10.98
2019-05-03T01:36:22.771Z,10.98
2019-05-03T01:38:52.878Z,10.97
2019-05-03T01:41:22.382Z,10.96
2019-05-03T01:43:52.632Z,10.91
2019-05-03T01:46:22.842Z,10.92
2019-05-03T01:49:14.138Z,10.94
2019-05-03T01:52:02.223Z,10.90
2019-05-03T01:54:32.180Z,10.91
2019-05-03T01:57:02.452Z,10.96
2019-05-03T01:59:32.128Z,10.89
2019-05-03T02:02:32.681Z,10.88
2019-05-03T02:05:16.170Z,10.88
2019-05-03T02:07:45.337Z,10.89
2019-05-03T02:10:14.708Z,10.82
2019-05-03T02:12:43.888Z,10.75
2019-05-03T02:15:13.070Z,10.78
2019-05-03T02:17:42.664Z,10.80
2019-05-03T02:20:12.658Z,10.81
2019-05-03T02:22:42.816Z,10.82
2019-05-03T02:25:12.534Z,10.84
2019-05-03T02:27:42.290Z,10.81
2019-05-03T02:30:14.140Z,10.82
2019-05-03T02:32:44.182Z,10.88
2019-05-03T02:35:14.162Z,10.89
2019-05-03T02:37:45.229Z,10.90
2019-05-03T02:40:14.610Z,10.86
2019-05-03T02:42:46.582Z,10.82
2019-05-03T02:45:25.721Z,10.80
2019-05-03T02:48:06.003Z,10.76
2019-05-03T02:50:36.080Z,10.74
2019-05-03T02:53:05.837Z,10.72
2019-05-03T02:55:36.405Z,10.71
2019-05-03T02:58:05.866Z,10.73
2019-05-03T03:01:00.196Z,10.74
2019-05-03T03:03:30.279Z,10.62
2019-05-03T03:06:01.904Z,10.66
2019-05-03T03:08:33.345Z,10.66
2019-05-03T03:11:06.363Z,10.59
2019-05-03T03:13:38.528Z,10.74
2019-05-03T03:16:08.958Z,10.78
2019-05-03T03:18:40.173Z,10.79
2019-05-03T03:21:16.143Z,10.76
2019-05-03T03:23:57.209Z,10.74
2019-05-03T03:26:37.354Z,10.73
2019-05-03T03:29:06.019Z,10.75
2019-05-03T03:31:58.511Z,10.75
2019-05-03T03:34:32.222Z,10.73
2019-05-03T03:37:06.470Z,10.71
2019-05-03T03:39:32.861Z,10.72
2019-05-03T03:42:05.271Z,10.75
2019-05-03T03:44:36.370Z,10.74
2019-05-03T03:47:05.994Z,10.83
2019-05-03T03:49:36.761Z,10.68
2019-05-03T03:52:07.376Z,10.74
2019-05-03T03:54:39.298Z,10.67
2019-05-03T03:57:10.347Z,10.68
2019-05-03T03:59:39.602Z,10.71
2019-05-03T04:02:08.763Z,10.56
2019-05-03T04:04:38.236Z,10.49
2019-05-03T04:07:07.913Z,10.56
2019-05-03T04:09:37.312Z,10.47
2019-05-03T04:12:08.035Z,10.47
2019-05-03T04:14:56.301Z,10.48
2019-05-03T04:17:57.153Z,10.35
2019-05-03T04:20:30.427Z,10.25
2019-05-03T04:22:59.985Z,10.23
2019-05-03T04:25:29.396Z,10.18
2019-05-03T04:27:58.564Z,10.09
2019-05-03T04:30:27.835Z,10.06
2019-05-03T04:32:57.162Z,10.06
2019-05-03T04:35:26.955Z,10.03
2019-05-03T04:37:56.339Z,10.05
2019-05-03T04:40:26.178Z,10.22
2019-05-03T04:42:56.048Z,10.18
2019-05-03T04:45:25.813Z,10.05
2019-05-03T04:47:55.962Z,10.00
2019-05-03T04:50:26.028Z,10.02
2019-05-03T04:52:56.580Z,10.11
2019-05-03T04:55:26.823Z,9.97
2019-05-03T04:57:56.429Z,10.04
2019-05-03T05:00:26.054Z,10.00
2019-05-03T05:02:55.690Z,10.13
2019-05-03T05:05:26.142Z,10.10
2019-05-03T05:07:55.981Z,10.08
2019-05-03T05:10:26.255Z,10.13
2019-05-03T05:12:55.697Z,10.19
2019-05-03T05:15:26.411Z,10.15
2019-05-03T05:18:15.974Z,10.20
2019-05-03T05:20:55.485Z,10.10
2019-05-03T05:23:25.100Z,10.20
2019-05-03T05:26:14.491Z,10.17
2019-05-03T05:28:48.701Z,10.21
2019-05-03T05:31:17.896Z,10.28
2019-05-03T05:33:47.179Z,10.37
2019-05-03T05:36:16.526Z,10.41
2019-05-03T05:38:45.777Z,10.36
2019-05-03T05:41:15.614Z,10.44
2019-05-03T05:43:45.132Z,10.39
2019-05-03T05:46:14.783Z,10.50
2019-05-03T05:48:48.085Z,10.51
2019-05-03T05:51:17.265Z,10.41
2019-05-03T05:53:46.423Z,10.23
2019-05-03T05:56:26.674Z,10.29
2019-05-03T05:59:24.818Z,10.31
2019-05-03T06:01:57.972Z,10.43
2019-05-03T06:04:27.131Z,10.55
2019-05-03T06:07:14.870Z,10.46
2019-05-03T06:09:50.970Z,10.64
2019-05-03T06:12:32.567Z,10.75
2019-05-03T06:15:06.922Z,10.77
2019-05-03T06:18:00.901Z,10.98
2019-05-03T06:20:48.291Z,10.84
2019-05-03T06:23:24.752Z,11.17
2019-05-03T06:25:54.559Z,11.59
2019-05-03T06:28:29.918Z,11.30
2019-05-03T06:31:19.630Z,11.78
2019-05-03T06:33:48.836Z,12.30
2019-05-03T06:36:18.119Z,12.31
2019-05-03T06:38:47.273Z,12.21
2019-05-03T06:41:16.501Z,12.27
2019-05-03T06:43:48.776Z,12.83
2019-05-03T06:46:18.346Z,12.94
2019-05-03T06:48:47.510Z,12.75
2019-05-03T06:51:20.003Z,12.61
2019-05-03T06:53:50.644Z,12.97
2019-05-03T06:56:25.124Z,13.76
2019-05-03T06:58:50.899Z,13.89
2019-05-03T07:01:29.713Z,14.50
2019-05-03T07:04:26.712Z,14.86
2019-05-03T07:07:06.123Z,13.86
2019-05-03T07:10:00.447Z,13.43
2019-05-03T07:12:48.543Z,14.00
2019-05-03T07:15:17.759Z,13.69
2019-05-03T07:17:46.973Z,13.38
2019-05-03T07:20:16.144Z,12.83
2019-05-03T07:22:45.267Z,13.38
2019-05-03T07:25:14.953Z,13.53
2019-05-03T07:27:45.214Z,13.06
2019-05-03T07:30:15.664Z,12.76
2019-05-03T07:32:46.812Z,12.74
2019-05-03T07:35:15.985Z,12.75
2019-05-03T07:37:45.186Z,12.74
2019-05-03T07:40:14.889Z,12.76
2019-05-03T07:42:44.893Z,13.54
2019-05-03T07:45:14.978Z,13.90
2019-05-03T07:47:45.216Z,13.81
2019-05-03T07:50:15.273Z,13.74
2019-05-03T07:52:45.090Z,13.77
2019-05-03T07:55:14.947Z,12.94
2019-05-03T07:57:51.796Z,12.89
2019-05-03T08:00:25.383Z,13.24
2019-05-03T08:02:54.978Z,13.79
2019-05-03T08:05:24.666Z,13.81
2019-05-03T08:07:55.394Z,13.34
2019-05-03T08:10:25.646Z,13.41
2019-05-03T08:12:55.094Z,13.71
2019-05-03T08:15:24.669Z,13.76
2019-05-03T08:17:55.441Z,14.12
2019-05-03T08:20:24.977Z,13.69
2019-05-03T08:22:54.731Z,14.55
2019-05-03T08:25:24.971Z,14.79
2019-05-03T08:27:54.940Z,14.72
2019-05-03T08:30:30.165Z,14.41
2019-05-03T08:33:21.138Z,13.92
2019-05-03T08:35:50.490Z,13.78
2019-05-03T08:38:19.883Z,15.37
2019-05-03T08:40:49.507Z,16.40
2019-05-03T08:43:18.652Z,17.47
2019-05-03T08:45:47.822Z,16.38
2019-05-03T08:48:17.115Z,16.38
2019-05-03T08:50:46.293Z,15.78
2019-05-03T08:53:15.845Z,14.64
2019-05-03T08:55:45.116Z,14.92
2019-05-03T08:58:15.490Z,14.90
2019-05-03T09:00:45.465Z,14.31
2019-05-03T09:03:14.869Z,14.14
2019-05-03T09:05:45.847Z,13.98
2019-05-03T09:08:15.746Z,14.28
2019-05-03T09:10:54.523Z,14.32
2019-05-03T09:13:25.115Z,14.82
2019-05-03T09:15:55.285Z,14.21
2019-05-03T09:18:25.805Z,14.18
2019-05-03T09:20:55.825Z,13.91
2019-05-03T09:23:25.982Z,13.79
2019-05-03T09:25:55.321Z,14.05
2019-05-03T09:28:26.434Z,13.88
2019-05-03T09:30:55.391Z,13.74
2019-05-03T09:33:24.980Z,13.71
2019-05-03T09:35:54.963Z,14.26
2019-05-03T09:38:25.652Z,14.33
2019-05-03T09:40:55.071Z,13.89
2019-05-03T09:43:25.196Z,13.57
2019-05-03T09:45:54.767Z,13.73
2019-05-03T09:48:25.484Z,13.92
2019-05-03T09:50:55.630Z,14.01
2019-05-03T09:53:27.083Z,14.34
2019-05-03T09:55:56.279Z,14.12
2019-05-03T09:58:26.329Z,14.79
2019-05-03T10:00:55.749Z,15.39
2019-05-03T10:03:24.922Z,15.85
2019-05-03T10:05:55.348Z,15.30
2019-05-03T10:08:25.442Z,15.92
2019-05-03T10:11:10.238Z,15.55
2019-05-03T10:13:41.808Z,15.43
2019-05-03T10:16:10.593Z,15.66
2019-05-03T10:18:39.868Z,16.72
2019-05-03T10:21:09.047Z,16.48
2019-05-03T10:23:41.561Z,15.67
2019-05-03T10:26:10.969Z,15.11
2019-05-03T10:28:48.660Z,15.38
2019-05-03T10:31:18.120Z,16.93
2019-05-03T10:34:01.930Z,17.98
2019-05-03T10:36:31.135Z,17.05
2019-05-03T10:39:00.329Z,16.55
2019-05-03T10:41:29.507Z,16.72
2019-05-03T10:43:58.670Z,16.20
2019-05-03T10:46:27.864Z,17.91
2019-05-03T10:48:57.079Z,18.31
2019-05-03T10:51:28.434Z,17.47
2019-05-03T10:53:59.781Z,17.21
2019-05-03T10:56:35.904Z,18.29
2019-05-03T10:59:06.961Z,18.27
2019-05-03T11:01:55.136Z,17.34
2019-05-03T11:04:25.005Z,18.30
2019-05-03T11:06:55.083Z,19.04
2019-05-03T11:09:25.921Z,17.85
2019-05-03T11:11:55.685Z,17.53
2019-05-03T11:14:25.503Z,17.19
2019-05-03T11:16:55.359Z,16.19
2019-05-03T11:19:25.416Z,17.72
2019-05-03T11:21:54.981Z,17.27
2019-05-03T11:24:27.318Z,18.53
2019-05-03T11:26:59.914Z,19.07
2019-05-03T11:29:27.772Z,17.51
2019-05-03T11:32:10.001Z,16.97
2019-05-03T11:34:55.425Z,16.08
2019-05-03T11:37:49.656Z,16.39
2019-05-03T11:40:19.002Z,18.02
2019-05-03T11:42:48.842Z,17.35
2019-05-03T11:45:18.259Z,16.58
2019-05-03T11:47:47.443Z,16.43
2019-05-03T11:50:16.755Z,17.23
2019-05-03T11:52:47.234Z,16.72
2019-05-03T11:55:16.737Z,15.92
2019-05-03T11:57:45.970Z,16.80
2019-05-03T12:00:19.852Z,17.21
2019-05-03T12:03:10.985Z,17.29
2019-05-03T12:05:41.577Z,17.29
2019-05-03T12:08:10.761Z,16.95
2019-05-03T12:10:51.981Z,17.24
2019-05-03T12:13:24.666Z,16.81
2019-05-03T12:15:55.261Z,16.29
2019-05-03T12:18:25.398Z,16.02
2019-05-03T12:20:56.667Z,16.03
2019-05-03T12:23:31.588Z,15.81
2019-05-03T12:26:00.146Z,16.36
2019-05-03T12:28:29.738Z,16.38
2019-05-03T12:30:58.881Z,16.07
2019-05-03T12:33:28.268Z,16.08
2019-05-03T12:35:57.432Z,15.62
2019-05-03T12:38:26.708Z,15.88
2019-05-03T12:40:55.914Z,15.81
2019-05-03T12:43:25.683Z,14.98
2019-05-03T12:45:54.944Z,14.81
2019-05-03T12:48:24.630Z,14.91
2019-05-03T12:50:54.215Z,14.59
2019-05-03T12:53:24.653Z,14.76
2019-05-03T12:55:54.000Z,14.75
2019-05-03T12:58:25.448Z,14.65
2019-05-03T13:01:12.117Z,14.65
2019-05-03T13:03:55.338Z,14.17
2019-05-03T13:06:25.471Z,14.22
2019-05-03T13:08:54.896Z,14.22
2019-05-03T13:11:25.141Z,14.11
2019-05-03T13:13:55.680Z,14.09
2019-05-03T13:16:24.861Z,14.19
2019-05-03T13:18:55.270Z,14.19
2019-05-03T13:21:25.233Z,14.33
2019-05-03T13:23:54.916Z,14.13
2019-05-03T13:26:25.446Z,14.24
2019-05-03T13:28:55.367Z,14.11
2019-05-03T13:31:25.175Z,14.36
2019-05-03T13:33:54.937Z,14.28
2019-05-03T13:36:25.286Z,14.65
2019-05-03T13:39:09.892Z,14.32
2019-05-03T13:41:25.913Z,14.35
2019-05-03T13:43:55.229Z,14.15
2019-05-03T13:46:24.780Z,13.75
2019-05-03T13:48:55.493Z,13.77
2019-05-03T13:51:25.319Z,13.82
2019-05-03T13:53:55.145Z,13.76
2019-05-03T13:56:24.728Z,13.61
2019-05-03T13:58:55.153Z,13.74
2019-05-03T14:01:25.249Z,13.62
2019-05-03T14:03:54.667Z,13.77
2019-05-03T14:06:24.633Z,13.68
2019-05-03T14:08:54.792Z,13.64
2019-05-03T14:11:25.389Z,13.59
2019-05-03T14:13:55.167Z,13.70
2019-05-03T14:16:24.630Z,13.51
2019-05-03T14:18:56.788Z,13.32
2019-05-03T14:21:31.864Z,13.08
2019-05-03T14:24:10.260Z,12.70
2019-05-03T14:26:40.619Z,12.72
2019-05-03T14:29:10.959Z,12.77
2019-05-03T14:31:40.185Z,12.99
2019-05-03T14:34:09.392Z,13.09
2019-05-03T14:36:39.556Z,12.90
2019-05-03T14:39:10.382Z,12.85
2019-05-03T14:41:39.704Z,12.95
2019-05-03T14:44:08.975Z,12.79
2019-05-03T14:46:38.640Z,13.03
2019-05-03T14:49:07.796Z,12.85
2019-05-03T14:51:37.322Z,12.91
2019-05-03T14:54:07.706Z,12.86
2019-05-03T14:56:48.217Z,12.98
2019-05-03T14:59:34.854Z,13.01
2019-05-03T15:02:42.576Z,13.15
2019-05-03T15:05:02.841Z,12.96
2019-05-03T15:07:32.140Z,12.92
2019-05-03T15:10:01.339Z,12.95
2019-05-03T15:12:30.584Z,13.14
2019-05-03T15:15:01.360Z,13.27
2019-05-03T15:17:30.696Z,13.53
2019-05-03T15:19:59.909Z,13.49
2019-05-03T15:22:29.125Z,13.54
2019-05-03T15:24:58.316Z,13.76
2019-05-03T15:27:27.830Z,13.47
2019-05-03T15:29:57.376Z,13.12
2019-05-03T15:32:26.589Z,13.15
2019-05-03T15:34:55.791Z,12.94
2019-05-03T15:37:25.557Z,12.87
2019-05-03T15:40:06.079Z,13.12
2019-05-03T15:42:35.332Z,13.46
2019-05-03T15:45:22.738Z,13.81
2019-05-03T15:48:10.706Z,14.05
2019-05-03T15:50:39.893Z,13.52
2019-05-03T15:53:09.126Z,13.60
2019-05-03T15:55:38.281Z,13.86
2019-05-03T15:58:07.584Z,13.81
2019-05-03T16:00:36.800Z,14.06
2019-05-03T16:03:10.470Z,14.14
2019-05-03T16:05:37.272Z,13.99
2019-05-03T16:08:06.481Z,13.82
2019-05-03T16:10:37.219Z,14.21
2019-05-03T16:13:06.616Z,14.55
2019-05-03T16:15:35.897Z,14.82
2019-05-03T16:18:05.482Z,14.82
2019-05-03T16:20:39.155Z,14.82
2019-05-03T16:23:05.575Z,14.86
2019-05-03T16:25:35.590Z,14.08
2019-05-03T16:28:09.770Z,13.96
2019-05-03T16:30:50.978Z,13.96
2019-05-03T16:33:27.038Z,13.84
2019-05-03T16:35:51.151Z,13.77
2019-05-03T16:38:20.367Z,13.66
2019-05-03T16:40:50.008Z,13.48
2019-05-03T16:43:19.392Z,13.70
2019-05-03T16:45:51.055Z,13.62
2019-05-03T16:48:20.409Z,13.68
2019-05-03T16:50:49.758Z,13.40
2019-05-03T16:53:18.940Z,13.40
2019-05-03T16:55:48.181Z,13.30
2019-05-03T16:58:17.330Z,13.38
2019-05-03T17:00:46.631Z,13.44
2019-05-03T17:03:17.452Z,13.45
2019-05-03T17:06:06.089Z,13.37
2019-05-03T17:08:57.237Z,13.33
2019-05-03T17:11:26.854Z,13.07
2019-05-03T17:13:57.671Z,12.91
2019-05-03T17:16:26.912Z,12.76
2019-05-03T17:18:56.208Z,12.83
2019-05-03T17:21:25.628Z,12.80
2019-05-03T17:23:55.065Z,12.78
2019-05-03T17:26:24.896Z,12.75
2019-05-03T17:28:55.337Z,12.80
2019-05-03T17:31:24.679Z,12.72
2019-05-03T17:33:56.687Z,12.83
2019-05-03T17:36:25.183Z,13.15
2019-05-03T17:38:56.042Z,13.24
2019-05-03T17:41:45.293Z,13.35
2019-05-03T17:44:31.663Z,13.53
2019-05-03T17:47:01.318Z,13.47
2019-05-03T17:49:30.684Z,13.26
2019-05-03T17:52:21.809Z,13.30
2019-05-03T17:55:10.072Z,13.35
2019-05-03T17:58:15.106Z,13.44
2019-05-03T18:01:06.395Z,13.48
2019-05-03T18:03:38.947Z,13.47
2019-05-03T18:06:29.953Z,13.37
2019-05-03T18:09:16.229Z,13.24
2019-05-03T18:11:47.832Z,13.15
2019-05-03T18:14:17.176Z,13.13
2019-05-03T18:16:46.385Z,13.01
2019-05-03T18:19:15.608Z,12.94
2019-05-03T18:21:44.811Z,12.79
2019-05-03T18:24:15.355Z,12.66
2019-05-03T18:26:44.635Z,12.58
2019-05-03T18:29:14.704Z,12.41
2019-05-03T18:31:44.642Z,12.32
2019-05-03T18:34:19.696Z,12.28
2019-05-03T18:36:45.078Z,12.23
2019-05-03T18:39:14.847Z,12.07
2019-05-03T18:41:45.204Z,12.02
2019-05-03T18:44:39.562Z,11.93
2019-05-03T18:47:11.948Z,11.90
2019-05-03T18:49:41.243Z,11.71
2019-05-03T18:52:10.592Z,11.60
2019-05-03T18:54:39.792Z,11.51
2019-05-03T18:57:08.991Z,11.42
2019-05-03T18:59:38.280Z,11.30
2019-05-03T19:02:07.743Z,11.20
2019-05-03T19:04:45.215Z,11.00
2019-05-03T19:07:46.189Z,10.87
2019-05-03T19:10:24.806Z,10.78
2019-05-03T19:13:14.850Z,10.73
2019-05-03T19:15:44.256Z,10.66
2019-05-03T19:18:38.795Z,10.55
2019-05-03T19:21:08.076Z,10.48
2019-05-03T19:23:37.445Z,10.25
2019-05-03T19:26:06.694Z,10.02
2019-05-03T19:28:36.070Z,9.87
2019-05-03T19:31:05.609Z,9.74
2019-05-03T19:33:37.210Z,9.68
2019-05-03T19:36:06.933Z,9.64
2019-05-03T19:38:36.273Z,9.61
2019-05-03T19:41:05.484Z,9.58
2019-05-03T19:43:35.584Z,9.42
2019-05-03T19:46:07.397Z,9.33
2019-05-03T19:48:36.408Z,9.23
2019-05-03T19:51:05.906Z,9.24
2019-05-03T19:53:55.073Z,9.43
2019-05-03T19:56:25.576Z,9.51
2019-05-03T19:58:59.886Z,9.37
2019-05-03T20:01:57.043Z,9.20
2019-05-03T20:04:34.351Z,9.28
2019-05-03T20:07:25.792Z,9.43
2019-05-03T20:09:55.105Z,9.39
2019-05-03T20:12:24.674Z,9.33
2019-05-03T20:14:54.626Z,9.26
2019-05-03T20:17:23.931Z,9.20
2019-05-03T20:19:54.438Z,9.15
2019-05-03T20:22:24.480Z,9.10
2019-05-03T20:24:55.263Z,9.03
2019-05-03T20:27:24.818Z,9.19
2019-05-03T20:29:55.470Z,9.30
2019-05-03T20:32:25.227Z,9.28
2019-05-03T20:34:55.123Z,9.17
2019-05-03T20:37:25.125Z,9.07
2019-05-03T20:39:54.595Z,9.07
2019-05-03T20:42:41.434Z,8.99
2019-05-03T20:45:16.109Z,8.96
2019-05-03T20:47:54.799Z,8.88
2019-05-03T20:50:24.755Z,8.86
2019-05-03T20:52:54.984Z,9.01
2019-05-03T20:55:25.669Z,9.13
2019-05-03T20:57:55.082Z,9.17
2019-05-03T21:00:25.882Z,9.13
2019-05-03T21:02:57.320Z,9.09
2019-05-03T21:05:30.688Z,9.01
2019-05-03T21:07:56.996Z,8.97
2019-05-03T21:10:26.384Z,8.93
2019-05-03T21:12:55.708Z,8.98
2019-05-03T21:15:32.789Z,9.00
2019-05-03T21:18:25.126Z,8.93
2019-05-03T21:21:03.378Z,8.88
2019-05-03T21:23:35.930Z,8.92
2019-05-03T21:26:12.917Z,8.95
2019-05-03T21:28:39.738Z,8.89
2019-05-03T21:31:08.946Z,8.87
2019-05-03T21:33:38.175Z,8.86
2019-05-03T21:36:07.553Z,8.84
2019-05-03T21:38:37.066Z,8.86
2019-05-03T21:41:06.595Z,8.94
2019-05-03T21:43:35.800Z,9.06
2019-05-03T21:46:15.044Z,9.11
2019-05-03T21:48:52.753Z,9.22
2019-05-03T21:51:21.935Z,9.25
2019-05-03T21:53:51.104Z,9.15
2019-05-03T21:56:20.586Z,8.99
2019-05-03T21:58:49.976Z,9.05
2019-05-03T22:01:19.381Z,9.15
2019-05-03T22:03:48.633Z,9.21
2019-05-03T22:06:17.823Z,9.18
2019-05-03T22:08:47.300Z,9.12
2019-05-03T22:11:16.446Z,9.15
2019-05-03T22:13:47.365Z,9.15
2019-05-03T22:16:34.430Z,9.06
2019-05-03T22:19:03.374Z,8.99
2019-05-03T22:21:38.256Z,9.05
2019-05-03T22:24:25.661Z,9.03
2019-05-03T22:26:57.887Z,8.95
2019-05-03T22:29:27.060Z,8.94
2019-05-03T22:31:56.334Z,8.97
2019-05-03T22:34:25.945Z,9.01
2019-05-03T22:36:55.493Z,9.04
2019-05-03T22:39:25.164Z,8.99
2019-05-03T22:41:54.620Z,8.97
2019-05-03T22:44:25.299Z,8.95
2019-05-03T22:46:55.153Z,8.91
2019-05-03T22:49:26.041Z,8.91
2019-05-03T22:51:55.499Z,8.93
2019-05-03T22:54:24.998Z,8.94
2019-05-03T22:56:55.446Z,8.93
2019-05-03T22:59:25.941Z,8.93
2019-05-03T23:01:55.602Z,8.83
2019-05-03T23:04:25.412Z,8.82
2019-05-03T23:06:55.621Z,8.78
2019-05-03T23:09:25.130Z,8.81
2019-05-03T23:11:55.226Z,8.80
2019-05-03T23:14:25.472Z,8.87
2019-05-03T23:16:55.098Z,8.89
2019-05-03T23:19:24.437Z,8.94
2019-05-03T23:22:21.930Z,8.93
2019-05-03T23:24:51.083Z,8.88
2019-05-03T23:27:20.298Z,8.88
2019-05-03T23:29:49.431Z,8.85
2019-05-03T23:32:19.688Z,8.87
2019-05-03T23:34:48.883Z,8.83
2019-05-03T23:37:18.050Z,8.77
2019-05-03T23:39:47.197Z,8.78
2019-05-03T23:42:16.653Z,8.74
2019-05-03T23:44:45.829Z,8.77
2019-05-03T23:47:25.748Z,8.71
2019-05-03T23:49:55.467Z,8.76
2019-05-03T23:52:35.545Z,8.81
2019-05-03T23:55:14.694Z,8.83
2019-05-03T23:57:44.653Z,8.78
